createdAt,value
2018-05-26T00:00:23.888Z,1009.38
2018-05-26T00:01:29.405Z,1009.33
2018-05-26T00:02:34.916Z,1009.37
2018-05-26T00:03:41.461Z,1009.34
2018-05-26T00:04:45.969Z,1009.35
2018-05-26T00:05:51.461Z,1009.32
2018-05-26T00:06:56.983Z,1009.33
2018-05-26T00:08:02.495Z,1009.33
2018-05-26T00:09:08.028Z,1009.31
2018-05-26T00:10:14.551Z,1009.29
2018-05-26T00:11:19.055Z,1009.31
2018-05-26T00:12:24.566Z,1009.29
2018-05-26T00:13:30.082Z,1009.34
2018-05-26T00:14:35.598Z,1009.29
2018-05-26T00:15:41.137Z,1009.28
2018-05-26T00:16:47.656Z,1009.30
2018-05-26T00:17:52.164Z,1009.31
2018-05-26T00:18:57.667Z,1009.31
2018-05-26T00:20:03.191Z,1009.32
2018-05-26T00:21:08.695Z,1009.32
2018-05-26T00:22:14.226Z,1009.29
2018-05-26T00:23:20.761Z,1009.31
2018-05-26T00:24:25.260Z,1009.31
2018-05-26T00:25:30.822Z,1009.31
2018-05-26T00:26:36.295Z,1009.27
2018-05-26T00:27:41.801Z,1009.31
2018-05-26T00:28:47.323Z,1009.31
2018-05-26T00:29:53.847Z,1009.29
2018-05-26T00:30:58.431Z,1009.28
2018-05-26T00:32:03.867Z,1009.28
2018-05-26T00:33:09.383Z,1009.29
2018-05-26T00:34:14.916Z,1009.26
2018-05-26T00:35:20.415Z,1009.24
2018-05-26T00:36:26.946Z,1009.26
2018-05-26T00:37:31.447Z,1009.23
2018-05-26T00:38:36.979Z,1009.25
2018-05-26T00:39:42.488Z,1009.28
2018-05-26T00:40:48.000Z,1009.30
2018-05-26T00:41:53.531Z,1009.27
2018-05-26T00:43:00.052Z,1009.30
2018-05-26T00:44:04.553Z,1009.30
2018-05-26T00:45:10.063Z,1009.30
2018-05-26T00:46:15.576Z,1009.31
2018-05-26T00:47:21.107Z,1009.31
2018-05-26T00:48:26.617Z,1009.32
2018-05-26T00:49:33.145Z,1009.33
2018-05-26T00:50:37.645Z,1009.28
2018-05-26T00:51:43.167Z,1009.27
2018-05-26T00:52:48.687Z,1009.26
2018-05-26T00:53:54.194Z,1009.25
2018-05-26T00:54:59.707Z,1009.28
2018-05-26T00:56:06.261Z,1009.22
2018-05-26T00:57:10.740Z,1009.21
2018-05-26T00:58:16.294Z,1009.21
2018-05-26T00:59:21.796Z,1009.15
2018-05-26T01:00:27.330Z,1009.13
2018-05-26T01:01:32.811Z,1009.08
2018-05-26T01:02:39.337Z,1009.11
2018-05-26T01:03:43.911Z,1009.13
2018-05-26T01:04:49.365Z,1009.14
2018-05-26T01:05:54.877Z,1009.15
2018-05-26T01:07:00.422Z,1009.19
2018-05-26T01:08:05.906Z,1009.18
2018-05-26T01:09:12.440Z,1009.22
2018-05-26T01:10:16.960Z,1009.23
2018-05-26T01:11:22.462Z,1009.23
2018-05-26T01:12:27.970Z,1009.22
2018-05-26T01:13:33.490Z,1009.22
2018-05-26T01:14:39.010Z,1009.23
2018-05-26T01:15:45.542Z,1009.22
2018-05-26T01:16:50.043Z,1009.20
2018-05-26T01:17:55.566Z,1009.22
2018-05-26T01:19:01.074Z,1009.22
2018-05-26T01:20:06.593Z,1009.25
2018-05-26T01:21:12.104Z,1009.20
2018-05-26T01:22:18.634Z,1009.22
2018-05-26T01:23:23.141Z,1009.26
2018-05-26T01:24:28.658Z,1009.30
2018-05-26T01:25:34.171Z,1009.31
2018-05-26T01:26:39.710Z,1009.32
2018-05-26T01:27:45.201Z,1009.35
2018-05-26T01:28:51.722Z,1009.34
2018-05-26T01:29:56.236Z,1009.36
2018-05-26T01:31:01.760Z,1009.37
2018-05-26T01:32:07.269Z,1009.33
2018-05-26T01:33:12.785Z,1009.34
2018-05-26T01:34:18.303Z,1009.34
2018-05-26T01:35:24.828Z,1009.30
2018-05-26T01:36:29.338Z,1009.30
2018-05-26T01:37:34.849Z,1009.31
2018-05-26T01:38:40.418Z,1009.35
2018-05-26T01:39:45.888Z,1009.30
2018-05-26T01:40:51.427Z,1009.32
2018-05-26T01:41:57.931Z,1009.32
2018-05-26T01:43:02.448Z,1009.30
2018-05-26T01:44:07.947Z,1009.28
2018-05-26T01:45:13.459Z,1009.26
2018-05-26T01:46:19.000Z,1009.25
2018-05-26T01:47:24.503Z,1009.29
2018-05-26T01:48:31.029Z,1009.29
2018-05-26T01:49:35.534Z,1009.25
2018-05-26T01:50:41.053Z,1009.30
2018-05-26T01:51:46.557Z,1009.28
2018-05-26T01:52:52.075Z,1009.28
2018-05-26T01:53:57.598Z,1009.27
2018-05-26T01:55:04.117Z,1009.28
2018-05-26T01:56:08.625Z,1009.29
2018-05-26T01:57:14.144Z,1009.26
2018-05-26T01:58:19.685Z,1009.24
2018-05-26T01:59:25.176Z,1009.20
2018-05-26T02:00:30.692Z,1009.21
2018-05-26T02:01:37.211Z,1009.19
2018-05-26T02:02:41.726Z,1009.18
2018-05-26T02:03:47.240Z,1009.16
2018-05-26T02:04:52.756Z,1009.17
2018-05-26T02:05:58.286Z,1009.23
2018-05-26T02:07:03.782Z,1009.19
2018-05-26T02:08:10.311Z,1009.21
2018-05-26T02:09:14.827Z,1009.26
2018-05-26T02:10:20.330Z,1009.24
2018-05-26T02:11:25.857Z,1009.27
2018-05-26T02:12:31.382Z,1009.27
2018-05-26T02:13:36.894Z,1009.29
2018-05-26T02:14:43.459Z,1009.27
2018-05-26T02:15:48.033Z,1009.30
2018-05-26T02:16:53.429Z,1009.26
2018-05-26T02:17:58.942Z,1009.30
2018-05-26T02:19:04.473Z,1009.31
2018-05-26T02:20:09.986Z,1009.32
2018-05-26T02:21:16.515Z,1009.29
2018-05-26T02:22:21.010Z,1009.30
2018-05-26T02:23:26.530Z,1009.27
2018-05-26T02:24:32.052Z,1009.26
2018-05-26T02:25:37.574Z,1009.30
2018-05-26T02:26:43.079Z,1009.32
2018-05-26T02:27:49.609Z,1009.30
2018-05-26T02:28:54.106Z,1009.36
2018-05-26T02:29:59.629Z,1009.32
2018-05-26T02:31:05.147Z,1009.35
2018-05-26T02:32:10.650Z,1009.30
2018-05-26T02:33:16.171Z,1009.39
2018-05-26T02:34:22.699Z,1009.36
2018-05-26T02:35:27.198Z,1009.35
2018-05-26T02:36:32.722Z,1009.33
2018-05-26T02:37:38.237Z,1009.34
2018-05-26T02:38:43.760Z,1009.34
2018-05-26T02:39:49.267Z,1009.36
2018-05-26T02:40:55.805Z,1009.35
2018-05-26T02:42:00.320Z,1009.38
2018-05-26T02:43:05.813Z,1009.39
2018-05-26T02:44:11.330Z,1009.37
2018-05-26T02:45:16.845Z,1009.35
2018-05-26T02:46:22.385Z,1009.39
2018-05-26T02:47:28.906Z,1009.33
2018-05-26T02:48:33.399Z,1009.35
2018-05-26T02:49:38.915Z,1009.34
2018-05-26T02:50:44.426Z,1009.31
2018-05-26T02:51:49.953Z,1009.31
2018-05-26T02:52:55.467Z,1009.32
2018-05-26T02:54:01.994Z,1009.35
2018-05-26T02:55:06.488Z,1009.40
2018-05-26T02:56:12.009Z,1009.42
2018-05-26T02:57:17.530Z,1009.45
2018-05-26T02:58:23.047Z,1009.45
2018-05-26T02:59:28.557Z,1009.46
2018-05-26T03:00:35.080Z,1009.44
2018-05-26T03:01:39.582Z,1009.45
2018-05-26T03:02:45.105Z,1009.41
2018-05-26T03:03:50.620Z,1009.38
2018-05-26T03:04:56.137Z,1009.38
2018-05-26T03:06:01.660Z,1009.42
2018-05-26T03:07:08.181Z,1009.42
2018-05-26T03:08:12.685Z,1009.42
2018-05-26T03:09:18.201Z,1009.42
2018-05-26T03:10:23.724Z,1009.40
2018-05-26T03:11:29.233Z,1009.40
2018-05-26T03:12:34.750Z,1009.38
2018-05-26T03:13:41.271Z,1009.37
2018-05-26T03:14:45.780Z,1009.36
2018-05-26T03:15:51.302Z,1009.38
2018-05-26T03:16:56.820Z,1009.39
2018-05-26T03:18:02.332Z,1009.36
2018-05-26T03:19:07.859Z,1009.40
2018-05-26T03:20:14.367Z,1009.37
2018-05-26T03:21:18.868Z,1009.40
2018-05-26T03:22:24.393Z,1009.40
2018-05-26T03:23:29.913Z,1009.42
2018-05-26T03:24:35.423Z,1009.43
2018-05-26T03:25:40.956Z,1009.46
2018-05-26T03:26:47.476Z,1009.44
2018-05-26T03:27:51.963Z,1009.49
2018-05-26T03:28:57.575Z,1009.54
2018-05-26T03:30:03.001Z,1009.51
2018-05-26T03:31:08.513Z,1009.48
2018-05-26T03:32:14.027Z,1009.52
2018-05-26T03:33:20.552Z,1009.53
2018-05-26T03:34:25.055Z,1009.54
2018-05-26T03:35:30.579Z,1009.48
2018-05-26T03:36:36.091Z,1009.45
2018-05-26T03:37:41.611Z,1009.42
2018-05-26T03:38:47.121Z,1009.41
2018-05-26T03:39:53.649Z,1009.43
2018-05-26T03:40:58.183Z,1009.38
2018-05-26T03:42:03.664Z,1009.39
2018-05-26T03:43:09.183Z,1009.40
2018-05-26T03:44:14.698Z,1009.40
2018-05-26T03:45:20.212Z,1009.44
2018-05-26T03:46:26.760Z,1009.48
2018-05-26T03:47:31.253Z,1009.48
2018-05-26T03:48:36.777Z,1009.51
2018-05-26T03:49:42.287Z,1009.56
2018-05-26T03:50:47.795Z,1009.56
2018-05-26T03:51:53.319Z,1009.55
2018-05-26T03:52:59.839Z,1009.59
2018-05-26T03:54:04.346Z,1009.60
2018-05-26T03:55:09.856Z,1009.59
2018-05-26T03:56:15.383Z,1009.59
2018-05-26T03:57:20.888Z,1009.61
2018-05-26T03:58:26.401Z,1009.64
2018-05-26T03:59:32.931Z,1009.63
2018-05-26T04:00:37.435Z,1009.64
2018-05-26T04:01:42.952Z,1009.69
2018-05-26T04:02:48.471Z,1009.74
2018-05-26T04:03:53.984Z,1009.72
2018-05-26T04:04:59.507Z,1009.73
2018-05-26T04:06:06.076Z,1009.74
2018-05-26T04:07:10.539Z,1009.77
2018-05-26T04:08:16.049Z,1009.82
2018-05-26T04:09:21.560Z,1009.81
2018-05-26T04:10:27.082Z,1009.79
2018-05-26T04:11:32.594Z,1009.79
2018-05-26T04:12:39.122Z,1009.81
2018-05-26T04:13:43.626Z,1009.81
2018-05-26T04:14:49.145Z,1009.79
2018-05-26T04:15:54.655Z,1009.84
2018-05-26T04:17:00.177Z,1009.83
2018-05-26T04:18:05.688Z,1009.83
2018-05-26T04:19:12.216Z,1009.87
2018-05-26T04:20:16.723Z,1009.86
2018-05-26T04:21:22.241Z,1009.88
2018-05-26T04:22:27.753Z,1009.87
2018-05-26T04:23:33.264Z,1009.91
2018-05-26T04:24:38.784Z,1009.91
2018-05-26T04:25:45.307Z,1009.89
2018-05-26T04:26:49.849Z,1009.92
2018-05-26T04:27:55.329Z,1009.91
2018-05-26T04:29:00.853Z,1009.90
2018-05-26T04:30:06.367Z,1009.87
2018-05-26T04:31:11.883Z,1009.91
2018-05-26T04:32:18.408Z,1009.88
2018-05-26T04:33:22.906Z,1009.89
2018-05-26T04:34:28.435Z,1009.89
2018-05-26T04:35:33.940Z,1009.90
2018-05-26T04:36:39.459Z,1009.90
2018-05-26T04:37:45.082Z,1009.94
2018-05-26T04:38:51.513Z,1009.89
2018-05-26T04:39:56.017Z,1009.94
2018-05-26T04:41:01.542Z,1009.92
2018-05-26T04:42:07.036Z,1009.94
2018-05-26T04:43:12.561Z,1009.91
2018-05-26T04:44:18.074Z,1009.88
2018-05-26T04:45:24.606Z,1009.90
2018-05-26T04:46:29.119Z,1009.92
2018-05-26T04:47:34.620Z,1009.93
2018-05-26T04:48:40.137Z,1009.92
2018-05-26T04:49:45.656Z,1009.94
2018-05-26T04:50:51.170Z,1009.98
2018-05-26T04:51:57.692Z,1010.02
2018-05-26T04:53:02.209Z,1010.03
2018-05-26T04:54:07.727Z,1010.05
2018-05-26T04:55:13.230Z,1010.02
2018-05-26T04:56:18.753Z,1010.04
2018-05-26T04:57:24.264Z,1010.05
2018-05-26T04:58:30.791Z,1010.03
2018-05-26T04:59:35.299Z,1010.04
2018-05-26T05:00:40.816Z,1010.04
2018-05-26T05:01:46.327Z,1010.05
2018-05-26T05:02:51.850Z,1009.97
2018-05-26T05:03:57.357Z,1009.98
2018-05-26T05:05:03.903Z,1010.00
2018-05-26T05:06:08.403Z,1009.99
2018-05-26T05:07:13.910Z,1010.03
2018-05-26T05:08:19.431Z,1010.00
2018-05-26T05:09:25.054Z,1009.98
2018-05-26T05:10:30.468Z,1010.02
2018-05-26T05:11:37.088Z,1010.01
2018-05-26T05:12:41.595Z,1010.00
2018-05-26T05:13:47.005Z,1010.04
2018-05-26T05:14:52.557Z,1010.08
2018-05-26T05:15:58.044Z,1010.08
2018-05-26T05:17:03.563Z,1010.09
2018-05-26T05:18:10.099Z,1010.08
2018-05-26T05:19:14.589Z,1010.08
2018-05-26T05:20:20.111Z,1010.09
2018-05-26T05:21:25.625Z,1010.08
2018-05-26T05:22:31.144Z,1010.06
2018-05-26T05:23:36.667Z,1010.06
2018-05-26T05:24:43.186Z,1010.06
2018-05-26T05:25:47.694Z,1010.05
2018-05-26T05:26:53.217Z,1010.10
2018-05-26T05:27:58.726Z,1010.08
2018-05-26T05:29:04.242Z,1010.11
2018-05-26T05:30:09.761Z,1010.14
2018-05-26T05:31:16.284Z,1010.14
2018-05-26T05:32:20.791Z,1010.14
2018-05-26T05:33:26.308Z,1010.16
2018-05-26T05:34:31.824Z,1010.16
2018-05-26T05:35:37.337Z,1010.15
2018-05-26T05:36:42.855Z,1010.16
2018-05-26T05:37:49.405Z,1010.21
2018-05-26T05:38:53.888Z,1010.13
2018-05-26T05:39:59.411Z,1010.16
2018-05-26T05:41:04.930Z,1010.15
2018-05-26T05:42:10.437Z,1010.16
2018-05-26T05:43:15.959Z,1010.15
2018-05-26T05:44:22.488Z,1010.17
2018-05-26T05:45:26.991Z,1010.17
2018-05-26T05:46:32.513Z,1010.17
2018-05-26T05:47:38.058Z,1010.23
2018-05-26T05:48:43.548Z,1010.21
2018-05-26T05:49:49.146Z,1010.19
2018-05-26T05:50:55.626Z,1010.21
2018-05-26T05:52:00.101Z,1010.23
2018-05-26T05:53:05.661Z,1010.21
2018-05-26T05:54:11.129Z,1010.25
2018-05-26T05:55:16.642Z,1010.23
2018-05-26T05:56:22.223Z,1010.26
2018-05-26T05:57:28.683Z,1010.29
2018-05-26T05:58:33.192Z,1010.30
2018-05-26T05:59:38.720Z,1010.33
2018-05-26T06:00:44.220Z,1010.32
2018-05-26T06:01:49.747Z,1010.34
2018-05-26T06:02:55.267Z,1010.38
2018-05-26T06:04:01.787Z,1010.41
2018-05-26T06:05:06.293Z,1010.41
2018-05-26T06:06:11.816Z,1010.44
2018-05-26T06:07:17.345Z,1010.43
2018-05-26T06:08:22.851Z,1010.42
2018-05-26T06:09:28.369Z,1010.48
2018-05-26T06:10:34.890Z,1010.43
2018-05-26T06:11:39.408Z,1010.42
2018-05-26T06:12:44.911Z,1010.46
2018-05-26T06:13:50.438Z,1010.44
2018-05-26T06:14:55.984Z,1010.43
2018-05-26T06:16:01.464Z,1010.44
2018-05-26T06:17:07.994Z,1010.47
2018-05-26T06:18:12.509Z,1010.48
2018-05-26T06:19:18.031Z,1010.47
2018-05-26T06:20:23.542Z,1010.47
2018-05-26T06:21:29.049Z,1010.47
2018-05-26T06:22:34.593Z,1010.44
2018-05-26T06:23:41.113Z,1010.47
2018-05-26T06:24:45.605Z,1010.45
2018-05-26T06:25:51.178Z,1010.44
2018-05-26T06:26:56.636Z,1010.46
2018-05-26T06:28:02.163Z,1010.46
2018-05-26T06:29:07.674Z,1010.48
2018-05-26T06:30:14.203Z,1010.46
2018-05-26T06:31:18.722Z,1010.46
2018-05-26T06:32:24.235Z,1010.44
2018-05-26T06:33:29.755Z,1010.48
2018-05-26T06:34:35.275Z,1010.49
2018-05-26T06:35:40.777Z,1010.49
2018-05-26T06:36:47.309Z,1010.46
2018-05-26T06:37:51.810Z,1010.46
2018-05-26T06:38:57.334Z,1010.49
2018-05-26T06:40:02.852Z,1010.47
2018-05-26T06:41:08.381Z,1010.50
2018-05-26T06:42:13.896Z,1010.53
2018-05-26T06:43:20.411Z,1010.58
2018-05-26T06:44:24.924Z,1010.57
2018-05-26T06:45:30.431Z,1010.60
2018-05-26T06:46:35.966Z,1010.60
2018-05-26T06:47:41.478Z,1010.59
2018-05-26T06:48:47.000Z,1010.59
2018-05-26T06:49:53.524Z,1010.63
2018-05-26T06:50:58.042Z,1010.61
2018-05-26T06:52:03.553Z,1010.61
2018-05-26T06:53:09.091Z,1010.58
2018-05-26T06:54:14.578Z,1010.60
2018-05-26T06:55:20.099Z,1010.59
2018-05-26T06:56:26.648Z,1010.62
2018-05-26T06:57:31.158Z,1010.62
2018-05-26T06:58:36.666Z,1010.65
2018-05-26T06:59:42.174Z,1010.69
2018-05-26T07:00:47.723Z,1010.65
2018-05-26T07:01:53.218Z,1010.66
2018-05-26T07:02:59.747Z,1010.64
2018-05-26T07:04:04.243Z,1010.61
2018-05-26T07:05:09.777Z,1010.62
2018-05-26T07:06:15.296Z,1010.61
2018-05-26T07:07:20.794Z,1010.61
2018-05-26T07:08:26.317Z,1010.59
2018-05-26T07:09:32.849Z,1010.60
2018-05-26T07:10:37.362Z,1010.59
2018-05-26T07:11:42.894Z,1010.61
2018-05-26T07:12:48.397Z,1010.60
2018-05-26T07:13:53.906Z,1010.58
2018-05-26T07:14:59.432Z,1010.57
2018-05-26T07:16:05.957Z,1010.51
2018-05-26T07:17:10.471Z,1010.51
2018-05-26T07:18:15.986Z,1010.47
2018-05-26T07:19:21.501Z,1010.45
2018-05-26T07:20:27.020Z,1010.46
2018-05-26T07:21:32.546Z,1010.47
2018-05-26T07:22:39.080Z,1010.46
2018-05-26T07:23:43.592Z,1010.44
2018-05-26T07:24:49.170Z,1010.48
2018-05-26T07:25:54.619Z,1010.48
2018-05-26T07:27:00.124Z,1010.49
2018-05-26T07:28:05.645Z,1010.44
2018-05-26T07:29:12.178Z,1010.46
2018-05-26T07:30:16.749Z,1010.50
2018-05-26T07:31:22.213Z,1010.45
2018-05-26T07:32:27.724Z,1010.43
2018-05-26T07:33:33.246Z,1010.45
2018-05-26T07:34:38.768Z,1010.45
2018-05-26T07:35:45.298Z,1010.42
2018-05-26T07:36:49.804Z,1010.44
2018-05-26T07:37:55.326Z,1010.45
2018-05-26T07:39:00.865Z,1010.43
2018-05-26T07:40:06.364Z,1010.44
2018-05-26T07:41:11.879Z,1010.45
2018-05-26T07:42:18.413Z,1010.43
2018-05-26T07:43:22.910Z,1010.46
2018-05-26T07:44:28.430Z,1010.43
2018-05-26T07:45:33.951Z,1010.41
2018-05-26T07:46:39.473Z,1010.42
2018-05-26T07:47:44.991Z,1010.42
2018-05-26T07:48:51.537Z,1010.43
2018-05-26T07:49:56.042Z,1010.44
2018-05-26T07:51:01.554Z,1010.41
2018-05-26T07:52:07.067Z,1010.37
2018-05-26T07:53:12.634Z,1010.42
2018-05-26T07:54:18.113Z,1010.39
2018-05-26T07:55:24.647Z,1010.38
2018-05-26T07:56:29.153Z,1010.43
2018-05-26T07:57:34.665Z,1010.47
2018-05-26T07:58:40.192Z,1010.42
2018-05-26T07:59:45.705Z,1010.45
2018-05-26T08:00:51.231Z,1010.49
2018-05-26T08:01:57.744Z,1010.50
2018-05-26T08:03:02.254Z,1010.53
2018-05-26T08:04:07.783Z,1010.53
2018-05-26T08:05:13.426Z,1010.50
2018-05-26T08:06:18.942Z,1010.53
2018-05-26T08:07:24.349Z,1010.54
2018-05-26T08:08:30.877Z,1010.50
2018-05-26T08:09:35.372Z,1010.48
2018-05-26T08:10:40.902Z,1010.46
2018-05-26T08:11:46.420Z,1010.51
2018-05-26T08:12:51.951Z,1010.51
2018-05-26T08:13:57.446Z,1010.50
2018-05-26T08:15:03.982Z,1010.55
2018-05-26T08:16:08.506Z,1010.54
2018-05-26T08:17:14.078Z,1010.56
2018-05-26T08:18:19.529Z,1010.58
2018-05-26T08:19:25.052Z,1010.56
2018-05-26T08:20:30.576Z,1010.55
2018-05-26T08:21:37.110Z,1010.54
2018-05-26T08:22:41.611Z,1010.53
2018-05-26T08:23:47.130Z,1010.54
2018-05-26T08:24:52.644Z,1010.51
2018-05-26T08:25:58.178Z,1010.52
2018-05-26T08:27:03.688Z,1010.56
2018-05-26T08:28:10.221Z,1010.50
2018-05-26T08:29:14.736Z,1010.53
2018-05-26T08:30:20.244Z,1010.56
2018-05-26T08:31:25.769Z,1010.55
2018-05-26T08:32:31.287Z,1010.51
2018-05-26T08:33:36.821Z,1010.55
2018-05-26T08:34:43.465Z,1010.53
2018-05-26T08:35:47.995Z,1010.56
2018-05-26T08:36:53.372Z,1010.55
2018-05-26T08:37:58.894Z,1010.58
2018-05-26T08:39:04.412Z,1010.56
2018-05-26T08:40:09.942Z,1010.55
2018-05-26T08:41:16.456Z,1010.53
2018-05-26T08:42:20.972Z,1010.54
2018-05-26T08:43:26.487Z,1010.58
2018-05-26T08:44:32.006Z,1010.53
2018-05-26T08:45:37.520Z,1010.58
2018-05-26T08:46:43.051Z,1010.59
2018-05-26T08:47:49.600Z,1010.62
2018-05-26T08:48:54.091Z,1010.60
2018-05-26T08:49:59.599Z,1010.57
2018-05-26T08:51:05.136Z,1010.63
2018-05-26T08:52:10.639Z,1010.61
2018-05-26T08:53:16.177Z,1010.60
2018-05-26T08:54:22.701Z,1010.60
2018-05-26T08:55:27.200Z,1010.61
2018-05-26T08:56:32.744Z,1010.59
2018-05-26T08:57:38.246Z,1010.58
2018-05-26T08:58:43.770Z,1010.62
2018-05-26T08:59:49.291Z,1010.60
2018-05-26T09:00:55.814Z,1010.61
2018-05-26T09:02:00.343Z,1010.63
2018-05-26T09:03:05.848Z,1010.63
2018-05-26T09:04:11.375Z,1010.64
2018-05-26T09:05:16.919Z,1010.68
2018-05-26T09:06:22.436Z,1010.66
2018-05-26T09:07:28.946Z,1010.65
2018-05-26T09:08:33.448Z,1010.65
2018-05-26T09:09:38.968Z,1010.65
2018-05-26T09:10:44.497Z,1010.63
2018-05-26T09:11:50.016Z,1010.61
2018-05-26T09:12:55.541Z,1010.59
2018-05-26T09:14:02.063Z,1010.61
2018-05-26T09:15:06.575Z,1010.60
2018-05-26T09:16:12.107Z,1010.62
2018-05-26T09:17:17.628Z,1010.59
2018-05-26T09:18:24.085Z,1010.58
2018-05-26T09:19:28.676Z,1010.59
2018-05-26T09:20:35.181Z,1010.60
2018-05-26T09:21:39.699Z,1010.55
2018-05-26T09:22:45.366Z,1010.54
2018-05-26T09:23:50.756Z,1010.54
2018-05-26T09:24:56.252Z,1010.57
2018-05-26T09:26:01.737Z,1010.58
2018-05-26T09:27:08.322Z,1010.58
2018-05-26T09:28:12.832Z,1010.57
2018-05-26T09:29:18.345Z,1010.55
2018-05-26T09:30:23.860Z,1010.58
2018-05-26T09:31:29.394Z,1010.55
2018-05-26T09:32:34.908Z,1010.59
2018-05-26T09:33:41.453Z,1010.59
2018-05-26T09:34:45.949Z,1010.60
2018-05-26T09:35:51.466Z,1010.63
2018-05-26T09:36:56.995Z,1010.62
2018-05-26T09:38:02.503Z,1010.58
2018-05-26T09:39:08.036Z,1010.58
2018-05-26T09:40:14.624Z,1010.64
2018-05-26T09:41:19.216Z,1010.60
2018-05-26T09:42:24.595Z,1010.61
2018-05-26T09:43:30.160Z,1010.61
2018-05-26T09:44:35.640Z,1010.62
2018-05-26T09:45:41.169Z,1010.60
2018-05-26T09:46:47.699Z,1010.62
2018-05-26T09:47:52.201Z,1010.65
2018-05-26T09:48:57.719Z,1010.61
2018-05-26T09:50:03.245Z,1010.65
2018-05-26T09:51:08.781Z,1010.59
2018-05-26T09:52:14.289Z,1010.62
2018-05-26T09:53:20.848Z,1010.59
2018-05-26T09:54:25.350Z,1010.61
2018-05-26T09:55:30.851Z,1010.63
2018-05-26T09:56:36.369Z,1010.58
2018-05-26T09:57:41.883Z,1010.61
2018-05-26T09:58:47.416Z,1010.59
2018-05-26T09:59:53.960Z,1010.59
2018-05-26T10:00:58.456Z,1010.57
2018-05-26T10:02:03.983Z,1010.58
2018-05-26T10:03:09.493Z,1010.59
2018-05-26T10:04:15.051Z,1010.60
2018-05-26T10:05:20.536Z,1010.55
2018-05-26T10:06:27.076Z,1010.61
2018-05-26T10:07:31.582Z,1010.58
2018-05-26T10:08:37.113Z,1010.57
2018-05-26T10:09:42.615Z,1010.57
2018-05-26T10:10:48.153Z,1010.53
2018-05-26T10:11:53.680Z,1010.54
2018-05-26T10:13:00.224Z,1010.58
2018-05-26T10:14:04.705Z,1010.58
2018-05-26T10:15:10.234Z,1010.55
2018-05-26T10:16:15.743Z,1010.58
2018-05-26T10:17:21.279Z,1010.59
2018-05-26T10:18:26.856Z,1010.57
2018-05-26T10:19:33.332Z,1010.53
2018-05-26T10:20:37.836Z,1010.55
2018-05-26T10:21:43.359Z,1010.53
2018-05-26T10:22:48.875Z,1010.53
2018-05-26T10:23:54.402Z,1010.60
2018-05-26T10:24:59.931Z,1010.55
2018-05-26T10:26:06.461Z,1010.46
2018-05-26T10:27:10.964Z,1010.46
2018-05-26T10:28:16.506Z,1010.48
2018-05-26T10:29:22.026Z,1010.52
2018-05-26T10:30:27.530Z,1010.47
2018-05-26T10:31:33.060Z,1010.45
2018-05-26T10:32:39.637Z,1010.45
2018-05-26T10:33:44.096Z,1010.43
2018-05-26T10:34:49.619Z,1010.43
2018-05-26T10:35:55.140Z,1010.40
2018-05-26T10:37:00.684Z,1010.38
2018-05-26T10:38:06.210Z,1010.40
2018-05-26T10:39:12.722Z,1010.35
2018-05-26T10:40:17.225Z,1010.38
2018-05-26T10:41:22.755Z,1010.42
2018-05-26T10:42:28.281Z,1010.41
2018-05-26T10:43:33.795Z,1010.38
2018-05-26T10:44:39.332Z,1010.37
2018-05-26T10:45:45.856Z,1010.38
2018-05-26T10:46:50.371Z,1010.36
2018-05-26T10:47:55.884Z,1010.35
2018-05-26T10:49:01.402Z,1010.40
2018-05-26T10:50:06.932Z,1010.43
2018-05-26T10:51:12.476Z,1010.37
2018-05-26T10:52:19.012Z,1010.33
2018-05-26T10:53:23.494Z,1010.33
2018-05-26T10:54:29.012Z,1010.36
2018-05-26T10:55:34.532Z,1010.33
2018-05-26T10:56:40.075Z,1010.40
2018-05-26T10:57:45.587Z,1010.36
2018-05-26T10:58:52.122Z,1010.37
2018-05-26T10:59:56.633Z,1010.39
2018-05-26T11:01:02.141Z,1010.41
2018-05-26T11:02:07.673Z,1010.36
2018-05-26T11:03:13.200Z,1010.41
2018-05-26T11:04:18.751Z,1010.41
2018-05-26T11:05:25.257Z,1010.41
2018-05-26T11:06:29.764Z,1010.41
2018-05-26T11:07:35.290Z,1010.40
2018-05-26T11:08:40.803Z,1010.42
2018-05-26T11:09:46.422Z,1010.41
2018-05-26T11:10:52.247Z,1010.45
2018-05-26T11:11:58.548Z,1010.37
2018-05-26T11:13:03.430Z,1010.40
2018-05-26T11:14:09.699Z,1010.43
2018-05-26T11:15:14.552Z,1010.38
2018-05-26T11:16:20.069Z,1010.43
2018-05-26T11:17:25.473Z,1010.43
2018-05-26T11:18:31.571Z,1010.46
2018-05-26T11:19:36.210Z,1010.43
2018-05-26T11:20:41.571Z,1010.42
2018-05-26T11:21:47.078Z,1010.38
2018-05-26T11:22:52.605Z,1010.39
2018-05-26T11:23:58.145Z,1010.39
2018-05-26T11:25:04.657Z,1010.38
2018-05-26T11:26:09.223Z,1010.41
2018-05-26T11:27:14.688Z,1010.42
2018-05-26T11:28:20.209Z,1010.36
2018-05-26T11:29:25.755Z,1010.40
2018-05-26T11:30:31.277Z,1010.39
2018-05-26T11:31:37.800Z,1010.42
2018-05-26T11:32:42.314Z,1010.40
2018-05-26T11:33:47.838Z,1010.43
2018-05-26T11:34:53.381Z,1010.40
2018-05-26T11:35:58.954Z,1010.41
2018-05-26T11:37:04.411Z,1010.41
2018-05-26T11:38:10.931Z,1010.45
2018-05-26T11:39:15.450Z,1010.46
2018-05-26T11:40:20.969Z,1010.42
2018-05-26T11:41:26.499Z,1010.47
2018-05-26T11:42:32.018Z,1010.44
2018-05-26T11:43:37.583Z,1010.42
2018-05-26T11:44:44.070Z,1010.49
2018-05-26T11:45:48.587Z,1010.52
2018-05-26T11:46:54.112Z,1010.47
2018-05-26T11:47:59.638Z,1010.51
2018-05-26T11:49:05.155Z,1010.50
2018-05-26T11:50:10.667Z,1010.43
2018-05-26T11:51:17.213Z,1010.41
2018-05-26T11:52:21.727Z,1010.41
2018-05-26T11:53:27.249Z,1010.40
2018-05-26T11:54:32.762Z,1010.41
2018-05-26T11:55:38.288Z,1010.43
2018-05-26T11:56:43.812Z,1010.39
2018-05-26T11:57:50.370Z,1010.33
2018-05-26T11:58:54.860Z,1010.31
2018-05-26T12:00:00.383Z,1010.35
2018-05-26T12:01:05.913Z,1010.34
2018-05-26T12:02:11.503Z,1010.29
2018-05-26T12:03:16.951Z,1010.23
2018-05-26T12:04:23.490Z,1010.26
2018-05-26T12:05:27.995Z,1010.24
2018-05-26T12:06:33.518Z,1010.24
2018-05-26T12:07:39.057Z,1010.22
2018-05-26T12:08:44.621Z,1010.17
2018-05-26T12:09:50.092Z,1010.19
2018-05-26T12:10:56.707Z,1010.21
2018-05-26T12:12:01.140Z,1010.25
2018-05-26T12:13:06.664Z,1010.28
2018-05-26T12:14:12.196Z,1010.32
2018-05-26T12:15:17.701Z,1010.27
2018-05-26T12:16:23.258Z,1010.27
2018-05-26T12:17:29.822Z,1010.27
2018-05-26T12:18:34.282Z,1010.22
2018-05-26T12:19:39.797Z,1010.23
2018-05-26T12:20:45.418Z,1010.26
2018-05-26T12:21:50.855Z,1010.25
2018-05-26T12:22:56.369Z,1010.22
2018-05-26T12:24:02.901Z,1010.17
2018-05-26T12:25:07.430Z,1010.24
2018-05-26T12:26:12.936Z,1010.27
2018-05-26T12:27:18.467Z,1010.29
2018-05-26T12:28:23.981Z,1010.30
2018-05-26T12:29:29.520Z,1010.28
2018-05-26T12:30:36.143Z,1010.26
2018-05-26T12:31:40.629Z,1010.26
2018-05-26T12:32:46.088Z,1010.22
2018-05-26T12:33:51.604Z,1010.22
2018-05-26T12:34:57.199Z,1010.19
2018-05-26T12:36:02.651Z,1010.18
2018-05-26T12:37:09.192Z,1010.21
2018-05-26T12:38:13.748Z,1010.21
2018-05-26T12:39:19.219Z,1010.22
2018-05-26T12:40:24.756Z,1010.20
2018-05-26T12:41:30.272Z,1010.17
2018-05-26T12:42:35.839Z,1010.21
2018-05-26T12:43:42.357Z,1010.23
2018-05-26T12:44:46.839Z,1010.25
2018-05-26T12:45:52.399Z,1010.23
2018-05-26T12:46:57.892Z,1010.21
2018-05-26T12:48:03.414Z,1010.27
2018-05-26T12:49:08.938Z,1010.24
2018-05-26T12:50:15.515Z,1010.19
2018-05-26T12:51:19.984Z,1010.18
2018-05-26T12:52:25.495Z,1010.14
2018-05-26T12:53:31.050Z,1010.17
2018-05-26T12:54:36.552Z,1010.13
2018-05-26T12:55:42.079Z,1010.14
2018-05-26T12:56:48.624Z,1010.07
2018-05-26T12:57:53.132Z,1010.16
2018-05-26T12:58:58.652Z,1010.18
2018-05-26T13:00:04.173Z,1010.19
2018-05-26T13:01:09.701Z,1010.24
2018-05-26T13:02:15.221Z,1010.25
2018-05-26T13:03:21.745Z,1010.21
2018-05-26T13:04:26.269Z,1010.21
2018-05-26T13:05:31.788Z,1010.15
2018-05-26T13:06:37.315Z,1010.16
2018-05-26T13:07:42.835Z,1010.15
2018-05-26T13:08:48.366Z,1010.16
2018-05-26T13:09:54.891Z,1010.21
2018-05-26T13:10:59.395Z,1010.19
2018-05-26T13:12:04.932Z,1010.20